Time;durP1;ratioP1;P1;durP2;ratioP2;P2;SDS_P1;SDS_P2;PMS_P1;PMS_P2;Temp;Humidity;BMP_temperature;BMP_pressure;BME280_temperature;BME280_humidity;BME280_pressure;Samples;Min_cycle;Max_cycle;Signal;HPM_P1;HPM_P2
2022/03/07 00:02:12;;;;;;;;;;;;;;;-0.05;60.54;101688.31;1713134;81;20877;-72
2022/03/07 00:04:39;;;;;;;;;;;;;;;-0.09;60.56;101689.86;1703468;82;20421;-72
2022/03/07 00:07:05;;;;;;;;;;;;;;;-0.13;60.54;101690.52;1703151;82;20516;-72
2022/03/07 00:09:30;;;;;;;;;;;;;;;-0.18;60.47;101691.12;1703606;82;20429;-72
2022/03/07 00:11:56;;;;;;;;;;;;;;;-0.25;60.49;101684.89;1725713;82;20162;-72
2022/03/07 00:14:22;;;;;;;;;;;;;;;-0.28;60.61;101690.23;1732473;82;20249;-72
2022/03/07 00:16:48;;;;;;;;;;;;;;;-0.34;60.68;101687.88;1727003;82;20167;-72
2022/03/07 00:19:14;;;;;;;;;;;;;;;-0.39;60.55;101686.80;1726090;82;20756;-73
2022/03/07 00:21:40;;;;;;;;;;;;;;;-0.44;60.67;101687.39;1732500;82;20123;-72
2022/03/07 00:24:07;;;;;;;;;;;;;;;-0.49;60.66;101691.39;1719381;82;20248;-73
2022/03/07 00:26:33;;;;;;;;;;;;;;;-0.54;60.59;101691.22;1705201;82;20437;-73
2022/03/07 00:28:59;;;;;;;;;;;;;;;-0.59;60.62;101695.61;1712606;82;20119;-72
2022/03/07 00:31:25;;;;;;;;;;;;;;;-0.65;60.60;101688.58;1733837;82;20569;-72
2022/03/07 00:33:51;;;;;;;;;;;;;;;-0.72;60.73;101696.31;1737187;81;20792;-72
2022/03/07 00:36:18;;;;;;;;;;;;;;;-0.77;60.72;101691.41;1737078;82;20409;-72
2022/03/07 00:38:44;;;;;;;;;;;;;;;-0.84;60.61;101690.66;1732535;81;20423;-72
2022/03/07 00:41:10;;;;;;;;;;;;;;;-0.88;60.78;101690.44;1709423;82;20184;-72
2022/03/07 00:43:36;;;;;;;;;;;;;;;-0.92;60.68;101691.08;1703614;84;20122;-72
2022/03/07 00:46:05;;;;;;;;;;;;;;;-0.97;60.70;101688.33;1719222;82;20436;-72
2022/03/07 00:48:31;;;;;;;;;;;;;;;-1.02;60.75;101689.38;1732498;82;20415;-73
2022/03/07 00:50:57;;;;;;;;;;;;;;;-1.05;60.83;101688.39;1710029;82;20143;-73
2022/03/07 00:53:24;;;;;;;;;;;;;;;-1.06;60.91;101693.86;1716333;82;20122;-72
2022/03/07 00:55:51;;;;;;;;;;;;;;;-1.06;60.95;101690.06;1703185;82;20429;-73
2022/03/07 00:58:17;;;;;;;;;;;;;;;-1.10;60.96;101688.17;1715453;82;20429;-73
2022/03/07 01:00:44;;;;;;;;;;;;;;;-1.11;61.05;101695.31;1701829;83;20149;-72
2022/03/07 01:03:12;;;;;;;;;;;;;;;-1.11;61.25;101695.31;1710352;82;20546;-73
2022/03/07 01:05:38;;;;;;;;;;;;;;;-1.10;61.26;101688.56;1731120;82;20454;-73
2022/03/07 01:08:05;;;;;;;;;;;;;;;-1.07;61.27;101689.59;1732409;82;20431;-72
2022/03/07 01:10:30;;;;;;;;;;;;;;;-1.04;61.37;101688.86;1719619;82;20435;-73
2022/03/07 01:12:56;;;;;;;;;;;;;;;-1.02;61.37;101686.84;1741367;81;20135;-72
2022/03/07 01:15:23;;;;;;;;;;;;;;;-1.00;61.42;101685.64;1755731;80;20832;-72
2022/03/07 01:17:49;;;;;;;;;;;;;;;-0.99;61.37;101687.38;1716459;82;20227;-73
2022/03/07 01:20:15;;;;;;;;;;;;;;;-0.98;61.40;101689.52;1701375;83;20212;-73
2022/03/07 01:22:44;;;;;;;;;;;;;;;-0.97;61.41;101687.05;1701481;84;20195;-73
2022/03/07 01:25:10;;;;;;;;;;;;;;;-0.97;61.37;101684.52;1708122;82;20202;-72
2022/03/07 01:27:36;;;;;;;;;;;;;;;-0.96;61.43;101684.13;1706945;82;20200;-72
2022/03/07 01:30:03;;;;;;;;;;;;;;;-0.98;61.47;101671.35;1701474;83;20161;-73
2022/03/07 01:32:29;;;;;;;;;;;;;;;-0.97;61.50;101676.91;1706675;82;20130;-73
2022/03/07 01:34:54;;;;;;;;;;;;;;;-0.98;61.46;101668.81;1703210;84;20789;-72
2022/03/07 01:37:20;;;;;;;;;;;;;;;-0.99;61.59;101667.08;1694091;83;20148;-72
2022/03/07 01:39:46;;;;;;;;;;;;;;;-1.00;61.53;101669.14;1720159;82;20716;-72
2022/03/07 01:42:12;;;;;;;;;;;;;;;-1.02;61.53;101666.93;1709430;83;20185;-72
2022/03/07 01:44:38;;;;;;;;;;;;;;;-1.04;61.54;101670.66;1729902;83;20766;-72
2022/03/07 01:47:05;;;;;;;;;;;;;;;-1.03;61.65;101668.59;1729748;82;20096;-73
2022/03/07 01:49:31;;;;;;;;;;;;;;;-1.02;61.69;101670.73;1729597;83;20099;-73
2022/03/07 01:51:58;;;;;;;;;;;;;;;-1.00;61.76;101662.80;1708453;82;20126;-73
2022/03/07 01:54:25;;;;;;;;;;;;;;;-0.96;61.91;101656.20;1699349;84;20206;-73
2022/03/07 01:56:52;;;;;;;;;;;;;;;-0.92;61.87;101647.92;1702493;83;20165;-73
2022/03/07 01:59:22;;;;;;;;;;;;;;;-0.88;62.03;101654.89;1708193;83;20197;-72
2022/03/07 02:01:49;;;;;;;;;;;;;;;-0.85;62.02;101653.36;1707115;83;20156;-72
2022/03/07 02:04:15;;;;;;;;;;;;;;;-0.81;62.06;101655.64;1698812;83;20209;-73
2022/03/07 02:06:41;;;;;;;;;;;;;;;-0.79;62.10;101652.38;1706670;83;20107;-73
2022/03/07 02:09:08;;;;;;;;;;;;;;;-0.74;62.16;101635.69;1728128;82;20605;-73
2022/03/07 02:11:34;;;;;;;;;;;;;;;-0.71;62.19;101640.04;1728200;82;21195;-73
2022/03/07 02:14:12;;;;;;;;;;;;;;;-0.68;62.27;101642.32;1728700;83;20446;-73
2022/03/07 02:16:38;;;;;;;;;;;;;;;-0.64;62.23;101637.38;1715111;83;20701;-72
2022/03/07 02:19:04;;;;;;;;;;;;;;;-0.61;62.37;101629.91;1699055;84;20209;-72
2022/03/07 02:21:32;;;;;;;;;;;;;;;-0.58;62.41;101625.83;1710964;83;20103;-73
2022/03/07 02:23:58;;;;;;;;;;;;;;;-0.52;62.55;101634.13;1715296;82;20154;-73
2022/03/07 02:26:23;;;;;;;;;;;;;;;-0.48;62.58;101624.14;1713322;83;20202;-72
2022/03/07 02:28:49;;;;;;;;;;;;;;;-0.43;62.59;101625.62;1719744;82;20196;-72
2022/03/07 02:31:20;;;;;;;;;;;;;;;-0.40;62.53;101624.08;1711840;83;20164;-72
2022/03/07 02:33:47;;;;;;;;;;;;;;;-0.38;62.65;101623.75;1699292;84;20197;-73
2022/03/07 02:36:13;;;;;;;;;;;;;;;-0.39;62.68;101613.12;1702607;83;20126;-72
2022/03/07 02:38:38;;;;;;;;;;;;;;;-0.39;62.67;101610.58;1701096;83;20149;-72
2022/03/07 02:41:04;;;;;;;;;;;;;;;-0.41;62.75;101618.53;1703385;84;20192;-72
2022/03/07 02:43:31;;;;;;;;;;;;;;;-0.40;62.84;101608.84;1703425;83;20138;-73
2022/03/07 02:45:58;;;;;;;;;;;;;;;-0.39;62.80;101605.90;1713825;82;20252;-73
2022/03/07 02:48:27;;;;;;;;;;;;;;;-0.41;62.75;101608.37;1729868;82;20109;-73
2022/03/07 02:50:53;;;;;;;;;;;;;;;-0.43;62.81;101607.83;1709482;82;20106;-73
2022/03/07 02:53:19;;;;;;;;;;;;;;;-0.47;62.95;101604.69;1703097;84;20228;-73
2022/03/07 02:55:45;;;;;;;;;;;;;;;-0.47;62.99;101596.66;1716072;82;20145;-73
2022/03/07 02:58:11;;;;;;;;;;;;;;;-0.46;62.81;101596.27;1721229;82;20217;-72
2022/03/07 03:00:37;;;;;;;;;;;;;;;-0.46;62.71;101592.05;1731434;82;20662;-72
2022/03/07 03:03:03;;;;;;;;;;;;;;;-0.45;63.00;101591.66;1715148;82;20114;-72
2022/03/07 03:05:29;;;;;;;;;;;;;;;-0.46;63.21;101594.59;1720639;82;20212;-73
2022/03/07 03:07:56;;;;;;;;;;;;;;;-0.45;63.25;101600.14;1716169;82;20129;-73
2022/03/07 03:10:21;;;;;;;;;;;;;;;-0.44;63.21;101599.74;1704228;82;20098;-72
2022/03/07 03:12:48;;;;;;;;;;;;;;;-0.48;63.25;101595.33;1714656;82;20160;-72
2022/03/07 03:15:15;;;;;;;;;;;;;;;-0.49;63.18;101592.32;1703190;83;20118;-73
2022/03/07 03:17:45;;;;;;;;;;;;;;;-0.53;63.13;101597.70;1731714;81;20473;-73
2022/03/07 03:20:12;;;;;;;;;;;;;;;-0.57;63.17;101596.22;1707421;82;20129;-72
2022/03/07 03:22:39;;;;;;;;;;;;;;;-0.60;63.28;101597.35;1732614;82;20103;-73
2022/03/07 03:25:06;;;;;;;;;;;;;;;-0.64;63.32;101593.81;1715346;82;20134;-73
2022/03/07 03:27:32;;;;;;;;;;;;;;;-0.67;63.34;101592.39;1703202;83;20460;-73
2022/03/07 03:29:58;;;;;;;;;;;;;;;-0.72;63.39;101590.05;1701637;83;20219;-73
2022/03/07 03:32:26;;;;;;;;;;;;;;;-0.75;63.34;101586.97;1701569;83;20693;-72
2022/03/07 03:34:55;;;;;;;;;;;;;;;-0.78;63.48;101591.91;1714779;82;20195;-72
2022/03/07 03:37:21;;;;;;;;;;;;;;;-0.81;63.56;101595.98;1703215;83;20097;-72
2022/03/07 03:39:47;;;;;;;;;;;;;;;-0.86;63.55;101587.28;1707640;82;20434;-72
2022/03/07 03:42:13;;;;;;;;;;;;;;;-0.88;63.51;101588.48;1711118;82;20089;-72
2022/03/07 03:44:39;;;;;;;;;;;;;;;-0.91;63.53;101593.42;1712529;82;20170;-72
2022/03/07 03:47:05;;;;;;;;;;;;;;;-0.95;63.65;101594.08;1712711;82;20779;-73
2022/03/07 03:49:31;;;;;;;;;;;;;;;-1.00;63.59;101597.67;1701504;84;20200;-73
2022/03/07 03:51:57;;;;;;;;;;;;;;;-1.02;63.67;101600.94;1729784;82;20130;-72
2022/03/07 03:54:23;;;;;;;;;;;;;;;-1.05;63.67;101601.70;1718207;82;20589;-73
2022/03/07 03:56:50;;;;;;;;;;;;;;;-1.08;63.59;101602.82;1706351;82;20207;-73
2022/03/07 03:59:16;;;;;;;;;;;;;;;-1.12;63.70;101603.48;1722717;82;20206;-73
2022/03/07 04:01:44;;;;;;;;;;;;;;;-1.16;63.69;101600.32;1717972;82;20179;-72
2022/03/07 04:04:12;;;;;;;;;;;;;;;-1.19;63.76;101601.45;1707974;82;20638;-72
2022/03/07 04:06:40;;;;;;;;;;;;;;;-1.21;63.92;101602.17;1708353;82;20107;-72
2022/03/07 04:09:05;;;;;;;;;;;;;;;-1.21;63.92;101605.98;1716262;82;20736;-72
2022/03/07 04:11:31;;;;;;;;;;;;;;;-1.23;63.94;101610.11;1723165;82;20178;-72
2022/03/07 04:14:00;;;;;;;;;;;;;;;-1.26;63.97;101608.30;1698194;82;20179;-73
2022/03/07 04:16:26;;;;;;;;;;;;;;;-1.26;64.13;101613.77;1727335;82;20170;-73
2022/03/07 04:18:52;;;;;;;;;;;;;;;-1.29;63.88;101617.42;1715366;82;20210;-73
2022/03/07 04:21:19;;;;;;;;;;;;;;;-1.32;63.93;101614.34;1729240;82;20183;-72
2022/03/07 04:23:45;;;;;;;;;;;;;;;-1.34;63.95;101617.20;1732182;82;20099;-73
2022/03/07 04:26:10;;;;;;;;;;;;;;;-1.37;63.90;101612.86;1728893;82;20695;-73
2022/03/07 04:28:37;;;;;;;;;;;;;;;-1.41;63.74;101610.09;1731075;82;20104;-71
2022/03/07 04:31:03;;;;;;;;;;;;;;;-1.46;63.88;101611.14;1731481;82;20225;-72
2022/03/07 04:33:28;;;;;;;;;;;;;;;-1.51;63.83;101611.72;1728084;82;20123;-73
2022/03/07 04:35:54;;;;;;;;;;;;;;;-1.56;63.80;101607.69;1728303;82;20150;-74
2022/03/07 04:38:24;;;;;;;;;;;;;;;-1.61;63.78;101610.43;1709211;82;20206;-74
2022/03/07 04:40:47;;;;;;;;;;;;;;;-1.63;63.94;101606.08;1711499;82;20083;-74
2022/03/07 04:43:13;;;;;;;;;;;;;;;-1.65;63.90;101611.47;1723497;83;20168;-72
2022/03/07 04:45:39;;;;;;;;;;;;;;;-1.69;63.89;101610.45;1706633;81;20229;-73
2022/03/07 04:48:05;;;;;;;;;;;;;;;-1.73;63.96;101613.23;1725209;83;20178;-73
2022/03/07 04:50:31;;;;;;;;;;;;;;;-1.79;63.91;101612.92;1727978;82;20165;-74
2022/03/07 04:52:56;;;;;;;;;;;;;;;-1.84;63.85;101616.02;1724167;83;20699;-73
2022/03/07 04:55:22;;;;;;;;;;;;;;;-1.90;63.90;101618.25;1726677;83;20198;-72
2022/03/07 04:57:48;;;;;;;;;;;;;;;-1.94;63.92;101610.89;1716378;83;20186;-73
2022/03/07 05:00:14;;;;;;;;;;;;;;;-1.96;63.94;101607.80;1728260;81;20236;-73
2022/03/07 05:02:41;;;;;;;;;;;;;;;-1.98;63.99;101613.19;1714316;81;20182;-73
2022/03/07 05:05:07;;;;;;;;;;;;;;;-2.03;64.18;101604.95;1726445;82;20181;-73
2022/03/07 05:07:33;;;;;;;;;;;;;;;-2.02;64.15;101610.90;1728049;83;20096;-73
2022/03/07 05:09:59;;;;;;;;;;;;;;;-2.01;64.35;101606.30;1724942;81;20508;-73
2022/03/07 05:12:25;;;;;;;;;;;;;;;-2.00;64.37;101610.18;1727015;81;20151;-73
2022/03/07 05:14:51;;;;;;;;;;;;;;;-1.98;64.48;101615.33;1727981;81;20218;-74
2022/03/07 05:17:24;;;;;;;;;;;;;;;-1.95;64.38;101611.68;1729122;82;20104;-73
2022/03/07 05:19:50;;;;;;;;;;;;;;;-1.91;64.68;101615.23;1720222;83;20170;-73
2022/03/07 05:22:17;;;;;;;;;;;;;;;-1.88;64.78;101616.66;1727480;83;20190;-73
2022/03/07 05:24:43;;;;;;;;;;;;;;;-1.84;64.66;101614.75;1728952;83;20096;-73
2022/03/07 05:27:09;;;;;;;;;;;;;;;-1.80;64.83;101609.05;1729161;82;20181;-70
2022/03/07 05:29:37;;;;;;;;;;;;;;;-1.77;64.84;101602.86;1717280;82;20131;-71
2022/03/07 05:32:03;;;;;;;;;;;;;;;-1.74;64.43;101601.75;1705595;82;20131;-73
2022/03/07 05:34:29;;;;;;;;;;;;;;;-1.70;65.04;101601.10;1726677;81;20211;-77
2022/03/07 05:36:55;;;;;;;;;;;;;;;-1.65;65.01;101598.79;1726773;82;20138;-73
2022/03/07 05:39:21;;;;;;;;;;;;;;;-1.60;65.25;101596.08;1709055;83;20341;-74
2022/03/07 05:41:46;;;;;;;;;;;;;;;-1.56;65.20;101601.34;1644292;83;5000708;-74
2022/03/07 05:44:12;;;;;;;;;;;;;;;-1.50;65.33;101600.77;1727115;82;20134;-74
2022/03/07 05:46:38;;;;;;;;;;;;;;;-1.45;65.08;101605.27;1721409;81;20159;-73
2022/03/07 05:49:04;;;;;;;;;;;;;;;-1.41;64.94;101606.30;1721952;81;20154;-73
2022/03/07 05:51:31;;;;;;;;;;;;;;;-1.41;64.79;101607.16;1730470;81;20182;-73
2022/03/07 05:53:56;;;;;;;;;;;;;;;-1.38;65.33;101592.48;1706583;81;20138;-73
2022/03/07 05:56:23;;;;;;;;;;;;;;;-1.31;65.58;101593.65;1715954;81;20464;-73
2022/03/07 05:58:49;;;;;;;;;;;;;;;-1.26;65.61;101594.73;1720988;83;20257;-74
2022/03/07 06:01:15;;;;;;;;;;;;;;;-1.20;65.70;101598.44;1716403;82;20183;-74
2022/03/07 06:03:41;;;;;;;;;;;;;;;-1.14;65.62;101596.19;1725674;81;20467;-74
2022/03/07 06:06:07;;;;;;;;;;;;;;;-1.08;65.71;101617.18;1727364;81;20183;-73
2022/03/07 06:08:38;;;;;;;;;;;;;;;-1.07;65.48;101629.94;1724940;81;20210;-73
2022/03/07 06:11:04;;;;;;;;;;;;;;;-1.06;65.42;101628.27;1715902;83;20236;-73
2022/03/07 06:13:30;;;;;;;;;;;;;;;-1.07;65.65;101615.98;1727919;83;20193;-74
2022/03/07 06:15:56;;;;;;;;;;;;;;;-1.03;66.03;101620.77;1725306;83;20434;-74
2022/03/07 06:18:22;;;;;;;;;;;;;;;-1.01;65.51;101622.58;1721197;83;20143;-73
2022/03/07 06:20:48;;;;;;;;;;;;;;;-0.97;65.88;101622.73;1726988;83;20209;-73
2022/03/07 06:23:15;;;;;;;;;;;;;;;-0.93;65.68;101616.99;1718335;82;20183;-73
2022/03/07 06:25:41;;;;;;;;;;;;;;;-0.92;65.33;101622.14;1720682;82;20659;-73
2022/03/07 06:28:09;;;;;;;;;;;;;;;-0.90;65.64;101623.08;1724832;81;20182;-73
2022/03/07 06:30:34;;;;;;;;;;;;;;;-0.87;65.58;101625.77;1717912;81;20187;-73
2022/03/07 06:33:00;;;;;;;;;;;;;;;-0.84;65.65;101629.72;1726361;82;20201;-73
2022/03/07 06:35:26;;;;;;;;;;;;;;;-0.81;65.97;101630.26;1726771;82;20221;-74
2022/03/07 06:37:53;;;;;;;;;;;;;;;-0.77;65.85;101622.85;1722752;81;20175;-73
2022/03/07 06:40:20;;;;;;;;;;;;;;;-0.71;66.25;101624.80;1714185;83;20182;-73
2022/03/07 06:42:46;;;;;;;;;;;;;;;-0.68;66.09;101619.47;1725504;83;20171;-73
2022/03/07 06:45:14;;;;;;;;;;;;;;;-0.64;65.90;101623.41;1716177;82;20207;-74
2022/03/07 06:47:40;;;;;;;;;;;;;;;-0.61;66.15;101632.05;1736644;81;20132;-74
2022/03/07 06:50:06;;;;;;;;;;;;;;;-0.55;66.00;101631.45;1703271;81;20117;-74
2022/03/07 06:52:32;;;;;;;;;;;;;;;-0.50;66.26;101632.49;1721018;81;20107;-74
2022/03/07 06:54:58;;;;;;;;;;;;;;;-0.47;66.25;101641.52;1724321;81;20239;-74
2022/03/07 06:57:24;;;;;;;;;;;;;;;-0.45;66.21;101643.73;1712399;81;20166;-74
2022/03/07 06:59:50;;;;;;;;;;;;;;;-0.43;66.39;101648.08;1720775;81;20157;-74
2022/03/07 07:02:18;;;;;;;;;;;;;;;-0.37;66.72;101651.30;1721653;82;20103;-74
2022/03/07 07:04:44;;;;;;;;;;;;;;;-0.34;66.74;101659.94;1729874;81;20119;-73
2022/03/07 07:07:10;;;;;;;;;;;;;;;-0.30;66.16;101652.45;1706954;82;20170;-73
2022/03/07 07:09:36;;;;;;;;;;;;;;;-0.29;66.39;101648.70;1721201;81;20150;-74
2022/03/07 07:12:01;;;;;;;;;;;;;;;-0.22;66.85;101649.44;1726281;83;20107;-74
2022/03/07 07:14:29;;;;;;;;;;;;;;;-0.15;66.78;101645.09;1716324;82;20215;-73
2022/03/07 07:16:57;;;;;;;;;;;;;;;-0.08;66.78;101641.16;1727492;82;20198;-74
2022/03/07 07:19:23;;;;;;;;;;;;;;;-0.05;66.61;101647.64;1717585;81;20179;-74
2022/03/07 07:21:49;;;;;;;;;;;;;;;0.00;66.69;101646.17;1723471;81;20597;-74
2022/03/07 07:24:15;;;;;;;;;;;;;;;0.05;67.07;101645.06;1727038;81;20245;-74
2022/03/07 07:26:41;;;;;;;;;;;;;;;0.10;66.78;101639.77;1739176;81;20567;-74
2022/03/07 07:29:07;;;;;;;;;;;;;;;0.12;66.85;101644.52;1721656;81;20171;-74
2022/03/07 07:31:33;;;;;;;;;;;;;;;0.17;67.12;101645.59;1707092;82;20240;-73
2022/03/07 07:33:58;;;;;;;;;;;;;;;0.25;66.95;101651.47;1717555;81;20197;-74
2022/03/07 07:36:24;;;;;;;;;;;;;;;0.33;67.39;101645.43;1716858;81;20277;-74
2022/03/07 07:38:50;;;;;;;;;;;;;;;0.45;67.41;101638.31;1726165;81;20808;-75
2022/03/07 07:41:16;;;;;;;;;;;;;;;0.57;67.31;101640.05;1722296;81;20209;-73
2022/03/07 07:43:41;;;;;;;;;;;;;;;0.62;67.20;101642.39;1712518;81;20241;-73
2022/03/07 07:46:07;;;;;;;;;;;;;;;0.69;67.22;101642.23;1727578;81;20189;-73
2022/03/07 07:48:51;;;;;;;;;;;;;;;0.73;67.39;101643.23;1723234;82;20229;-74
2022/03/07 07:51:17;;;;;;;;;;;;;;;0.83;67.55;101644.06;1692974;81;20215;-74
2022/03/07 07:53:43;;;;;;;;;;;;;;;1.15;67.91;101643.62;1706266;82;20475;-74
2022/03/07 07:56:09;;;;;;;;;;;;;;;1.53;67.70;101634.88;1726049;82;20123;-75
2022/03/07 07:58:35;;;;;;;;;;;;;;;1.70;67.52;101632.91;1719142;81;20178;-75
2022/03/07 08:01:01;;;;;;;;;;;;;;;1.76;67.38;101630.99;1730144;82;20174;-74
2022/03/07 08:03:27;;;;;;;;;;;;;;;1.88;67.60;101635.26;1707947;81;20160;-74
2022/03/07 08:05:53;;;;;;;;;;;;;;;2.06;67.46;101636.31;1725094;82;20341;-74
2022/03/07 08:08:19;;;;;;;;;;;;;;;2.34;67.61;101635.14;1724394;82;20179;-73
2022/03/07 08:10:45;;;;;;;;;;;;;;;2.63;67.69;101630.56;1725238;81;20503;-73
2022/03/07 08:13:12;;;;;;;;;;;;;;;2.67;67.61;101636.63;1722576;81;20151;-73
2022/03/07 08:15:40;;;;;;;;;;;;;;;2.54;67.52;101633.25;1720315;81;20190;-73
2022/03/07 08:18:09;;;;;;;;;;;;;;;2.47;67.62;101636.42;1717583;82;20139;-74
2022/03/07 08:20:36;;;;;;;;;;;;;;;2.48;67.83;101631.78;1726183;82;20741;-74
2022/03/07 08:23:03;;;;;;;;;;;;;;;2.57;68.11;101635.91;1723035;81;20111;-74
2022/03/07 08:25:29;;;;;;;;;;;;;;;2.70;67.90;101628.20;1726806;82;20107;-74
2022/03/07 08:27:55;;;;;;;;;;;;;;;2.78;67.78;101626.77;1723051;81;20205;-74
2022/03/07 08:30:23;;;;;;;;;;;;;;;2.90;67.86;101628.44;1725975;82;21144;-74
2022/03/07 08:32:49;;;;;;;;;;;;;;;3.02;67.92;101633.06;1729274;82;20138;-73
2022/03/07 08:35:15;;;;;;;;;;;;;;;3.08;67.84;101631.56;1728572;82;20127;-73
2022/03/07 08:37:45;;;;;;;;;;;;;;;3.03;67.70;101629.69;1726603;81;20198;-73
2022/03/07 08:40:12;;;;;;;;;;;;;;;3.08;67.85;101636.67;1723065;82;20524;-73
2022/03/07 08:42:38;;;;;;;;;;;;;;;3.08;67.81;101625.17;1686261;82;20306;-73
2022/03/07 08:45:06;;;;;;;;;;;;;;;3.14;67.96;101626.61;1642311;86;20511;-73
2022/03/07 08:47:35;;;;;;;;;;;;;;;3.18;67.90;101627.56;1650620;86;20453;-73
2022/03/07 08:50:01;;;;;;;;;;;;;;;3.15;67.97;101626.20;1639953;86;20176;-73
2022/03/07 08:52:26;;;;;;;;;;;;;;;3.23;68.10;101624.74;1643133;87;20220;-73
2022/03/07 08:54:53;;;;;;;;;;;;;;;3.27;68.02;101621.05;1646099;86;20201;-74
2022/03/07 08:57:18;;;;;;;;;;;;;;;3.27;67.90;101618.90;1649151;87;20299;-74
2022/03/07 08:59:44;;;;;;;;;;;;;;;3.19;67.97;101622.91;1644465;86;20938;-73
2022/03/07 09:02:10;;;;;;;;;;;;;;;3.06;67.96;101629.37;1668425;85;20239;-73
2022/03/07 09:04:39;;;;;;;;;;;;;;;3.04;68.21;101619.92;1648117;86;20545;-74
2022/03/07 09:07:06;;;;;;;;;;;;;;;3.15;68.37;101621.09;1650712;87;20150;-74
2022/03/07 09:09:32;;;;;;;;;;;;;;;3.24;68.21;101619.67;1650387;86;20488;-74
2022/03/07 09:11:58;;;;;;;;;;;;;;;3.28;68.06;101615.52;1648004;85;20589;-74
2022/03/07 09:14:24;;;;;;;;;;;;;;;3.31;68.12;101610.50;1648751;87;20469;-74
2022/03/07 09:16:49;;;;;;;;;;;;;;;3.26;68.08;101622.28;1639866;86;20256;-74
2022/03/07 09:19:15;;;;;;;;;;;;;;;3.18;68.03;101613.10;1649059;86;20160;-73
2022/03/07 09:21:41;;;;;;;;;;;;;;;3.13;68.06;101608.27;1642912;86;20656;-73
2022/03/07 09:24:07;;;;;;;;;;;;;;;3.11;68.08;101600.99;1650966;87;20260;-73
2022/03/07 09:26:33;;;;;;;;;;;;;;;3.09;68.23;101603.91;1647528;87;20721;-73
2022/03/07 09:28:59;;;;;;;;;;;;;;;3.11;68.18;101604.83;1642599;87;20824;-73
2022/03/07 09:31:29;;;;;;;;;;;;;;;3.11;68.16;101601.41;1642229;86;20158;-73
2022/03/07 09:33:54;;;;;;;;;;;;;;;3.16;68.33;101604.52;1638123;87;20832;-73
2022/03/07 09:36:21;;;;;;;;;;;;;;;3.19;68.13;101603.33;1615873;88;20772;-73
2022/03/07 09:38:50;;;;;;;;;;;;;;;3.20;68.31;101600.37;1646165;85;20138;-73
2022/03/07 09:41:18;;;;;;;;;;;;;;;3.28;68.31;101602.33;1641132;85;20445;-73
2022/03/07 09:43:44;;;;;;;;;;;;;;;3.38;68.29;101603.47;1630981;85;20139;-73
2022/03/07 09:46:12;;;;;;;;;;;;;;;3.35;68.18;101608.48;1619010;86;20739;-73
2022/03/07 09:48:37;;;;;;;;;;;;;;;3.42;68.29;101611.69;1627636;86;20194;-73
2022/03/07 09:51:03;;;;;;;;;;;;;;;3.52;68.37;101614.09;1630956;87;20410;-73
2022/03/07 09:53:29;;;;;;;;;;;;;;;3.60;68.28;101613.91;1621898;86;20663;-72
2022/03/07 09:55:56;;;;;;;;;;;;;;;3.72;68.39;101619.33;1614345;86;20655;-72
2022/03/07 09:58:21;;;;;;;;;;;;;;;3.80;68.20;101611.88;1605035;87;20243;-72
2022/03/07 10:00:48;;;;;;;;;;;;;;;3.84;68.29;101614.97;1678001;83;20441;-73
2022/03/07 10:03:20;;;;;;;;;;;;;;;3.90;68.18;101610.88;1680759;83;20201;-73
2022/03/07 10:05:48;;;;;;;;;;;;;;;3.91;68.15;101611.75;1682051;83;20424;-73
2022/03/07 10:08:28;;;;;;;;;;;;;;;3.95;68.27;101608.45;1682109;83;20472;-73
2022/03/07 10:10:55;;;;;;;;;;;;;;;3.98;68.15;101605.97;1673453;83;20479;-74
2022/03/07 10:13:23;;;;;;;;;;;;;;;4.03;68.23;101608.24;1670495;83;20269;-74
2022/03/07 10:15:58;;;;;;;;;;;;;;;4.11;68.16;101615.72;1682163;83;21053;-74
2022/03/07 10:18:24;;;;;;;;;;;;;;;4.15;68.17;101607.29;1678198;83;20128;-73
2022/03/07 10:20:52;;;;;;;;;;;;;;;4.25;68.24;101604.11;1684808;83;20686;-74
2022/03/07 10:23:18;;;;;;;;;;;;;;;4.34;68.15;101607.31;1680860;83;20135;-74
2022/03/07 10:25:44;;;;;;;;;;;;;;;4.44;68.26;101599.45;1680279;83;20185;-73
2022/03/07 10:28:11;;;;;;;;;;;;;;;4.59;68.11;101604.53;1657301;83;20264;-73
2022/03/07 10:30:38;;;;;;;;;;;;;;;4.68;68.03;101600.47;1672135;83;20213;-73
2022/03/07 10:33:07;;;;;;;;;;;;;;;4.71;67.92;101591.12;1673559;83;20212;-73
2022/03/07 10:35:35;;;;;;;;;;;;;;;4.77;67.95;101593.83;1683123;83;20481;-73
2022/03/07 10:38:03;;;;;;;;;;;;;;;4.87;67.97;101598.75;1667969;83;20496;-73
2022/03/07 10:40:31;;;;;;;;;;;;;;;4.98;67.87;101603.30;1674648;83;20183;-73
2022/03/07 10:43:00;;;;;;;;;;;;;;;5.09;67.52;101602.25;1706474;81;20198;-73
2022/03/07 10:45:29;;;;;;;;;;;;;;;5.10;67.60;101600.14;1725539;81;20195;-72
2022/03/07 10:47:57;;;;;;;;;;;;;;;5.15;67.22;101589.98;1721690;81;20099;-73
2022/03/07 10:50:25;;;;;;;;;;;;;;;5.18;67.57;101579.80;1728261;82;20091;-73
2022/03/07 10:52:52;;;;;;;;;;;;;;;5.23;67.44;101574.33;1727605;82;20115;-73
2022/03/07 10:55:26;;;;;;;;;;;;;;;5.30;67.55;101582.17;1725434;82;20307;-73
2022/03/07 10:57:52;;;;;;;;;;;;;;;5.37;67.13;101577.17;1717042;81;20526;-73
2022/03/07 11:00:18;;;;;;;;;;;;;;;5.40;67.06;101580.67;1726501;81;20225;-74
2022/03/07 11:02:46;;;;;;;;;;;;;;;5.43;66.44;101581.15;1727578;81;20103;-74
2022/03/07 11:05:14;;;;;;;;;;;;;;;5.40;66.91;101581.95;1723171;82;20445;-74
2022/03/07 11:07:42;;;;;;;;;;;;;;;5.48;66.91;101572.72;1718465;82;20150;-74
2022/03/07 11:10:10;;;;;;;;;;;;;;;5.56;66.86;101573.73;1727639;82;20084;-73
2022/03/07 11:12:37;;;;;;;;;;;;;;;5.69;66.69;101574.84;1727299;81;20111;-73
2022/03/07 11:15:08;;;;;;;;;;;;;;;5.73;66.52;101574.03;1727984;81;20123;-74
2022/03/07 11:17:32;;;;;;;;;;;;;;;5.79;66.71;101574.15;1724254;81;20391;-73
2022/03/07 11:19:59;;;;;;;;;;;;;;;5.83;66.39;101582.77;1723641;81;20122;-73
2022/03/07 11:22:26;;;;;;;;;;;;;;;5.80;65.30;101569.47;1725190;81;40304;-73
2022/03/07 11:24:53;;;;;;;;;;;;;;;5.84;66.08;101563.55;1706835;82;20220;-73
2022/03/07 11:27:19;;;;;;;;;;;;;;;5.94;66.30;101563.34;1729706;81;20107;-73
2022/03/07 11:29:45;;;;;;;;;;;;;;;6.09;65.99;101566.59;1725436;81;20142;-73
2022/03/07 11:32:14;;;;;;;;;;;;;;;6.20;66.06;101564.66;1718729;82;20126;-73
2022/03/07 11:34:51;;;;;;;;;;;;;;;6.25;65.73;101563.42;1730929;81;20095;-73
2022/03/07 11:37:18;;;;;;;;;;;;;;;6.26;65.71;101563.45;1725594;82;20131;-73
2022/03/07 11:39:44;;;;;;;;;;;;;;;6.36;65.86;101558.05;1719476;81;20099;-73
2022/03/07 11:42:15;;;;;;;;;;;;;;;6.44;65.75;101551.75;1729163;81;20615;-73
2022/03/07 11:44:42;;;;;;;;;;;;;;;6.43;65.26;101562.45;1725292;81;20450;-73
2022/03/07 11:47:14;;;;;;;;;;;;;;;6.44;65.44;101559.45;1728743;81;20169;-73
2022/03/07 11:49:40;;;;;;;;;;;;;;;6.44;65.15;101556.89;1730000;81;20095;-74
2022/03/07 11:52:11;;;;;;;;;;;;;;;6.44;65.14;101546.19;1714137;82;20134;-74
2022/03/07 11:54:55;;;;;;;;;;;;;;;6.41;64.56;101544.86;1711774;81;20131;-73
2022/03/07 11:57:37;;;;;;;;;;;;;;;6.44;64.88;101549.19;1707895;82;20112;-73
2022/03/07 12:00:13;;;;;;;;;;;;;;;6.50;64.64;101555.28;1723813;82;20084;-74
2022/03/07 12:02:44;;;;;;;;;;;;;;;6.50;64.67;101550.14;1725255;81;20399;-74
2022/03/07 12:05:27;;;;;;;;;;;;;;;6.61;64.80;101552.46;1722710;81;20159;-74
2022/03/07 12:08:08;;;;;;;;;;;;;;;6.74;64.20;101550.08;1725325;81;20107;-74
2022/03/07 12:10:34;;;;;;;;;;;;;;;6.87;64.25;101548.09;1724735;82;20217;-74
2022/03/07 12:13:10;;;;;;;;;;;;;;;6.98;64.40;101549.97;1698913;82;20514;-74
2022/03/07 12:15:48;;;;;;;;;;;;;;;7.06;64.56;101549.21;1710523;81;20123;-73
2022/03/07 12:18:14;;;;;;;;;;;;;;;7.03;64.04;101541.45;1721778;81;20185;-73
2022/03/07 12:20:54;;;;;;;;;;;;;;;6.98;63.52;101536.25;1714112;81;20270;-73
2022/03/07 12:23:26;;;;;;;;;;;;;;;6.89;63.66;101542.55;1725026;81;20187;-73
2022/03/07 12:25:58;;;;;;;;;;;;;;;6.84;62.99;101539.91;1726788;81;20095;-73
2022/03/07 12:28:27;;;;;;;;;;;;;;;6.84;63.50;101533.91;1728372;81;20123;-74
2022/03/07 12:30:54;;;;;;;;;;;;;;;6.87;63.30;101532.67;1727514;81;20125;-73
2022/03/07 12:33:20;;;;;;;;;;;;;;;6.85;62.42;101531.36;1716879;82;20115;-73
2022/03/07 12:35:46;;;;;;;;;;;;;;;6.84;63.41;101529.63;1730484;82;20130;-73
2022/03/07 12:38:15;;;;;;;;;;;;;;;6.83;62.62;101527.91;1726629;82;20187;-73
2022/03/07 12:40:40;;;;;;;;;;;;;;;6.81;63.04;101524.87;1715218;82;20363;-73